| Date | Time | Temp. (oF) | Dew Point (oF) | Rel. Hum. (%) | Press. (in.) | Wind Dir. | Wind Speed (mph) | Hourly Rainfall (in.) |
|
|---|---|---|---|---|---|---|---|---|---|
| 1 | 06/11 | 00:00 | 70 | 59 | 70 | 29.79 | S | 5 | 0.00 |
| 2 | 06/10 | 23:00 | 70 | 60 | 72 | 29.80 | S | 0 | 0.00 |
| 3 | 06/10 | 22:00 | 72 | 61 | 69 | 29.80 | SSW | 2 | 0.00 |
| 4 | 06/10 | 21:00 | 74 | 61 | 66 | 29.78 | S | 3 | 0.00 |
| 5 | 06/10 | 20:00 | 76 | 61 | 61 | 29.76 | S | 5 | 0.00 |
| 6 | 06/10 | 19:00 | 78 | 60 | 56 | 29.76 | S | 10 | 0.00 |
| 7 | 06/10 | 18:00 | 79 | 60 | 54 | 29.76 | SSE | 9 | 0.00 |
| 8 | 06/10 | 17:00 | 80 | 57 | 46 | 29.78 | S | 12 | 0.00 |
| 9 | 06/10 | 16:00 | 80 | 57 | 47 | 29.78 | SSW | 12 | 0.00 |
| 10 | 06/10 | 15:00 | 80 | 60 | 51 | 29.78 | S | 8 | 0.00 |
| 11 | 06/10 | 14:00 | 80 | 61 | 53 | 29.80 | SSW | 3 | 0.00 |
| 12 | 06/10 | 13:00 | 79 | 57 | 48 | 29.82 | SSE | 7 | 0.00 |
| 13 | 06/10 | 12:00 | 79 | 58 | 49 | 29.83 | W | 2 | 0.00 |
| 14 | 06/10 | 11:00 | 77 | 58 | 54 | 29.84 | S | 2 | 0.00 |
| 15 | 06/10 | 10:00 | 75 | 58 | 56 | 29.84 | SSW | 3 | 0.00 |
| 16 | 06/10 | 09:00 | 72 | 59 | 64 | 29.84 | WNW | 5 | 0.00 |
| 17 | 06/10 | 08:00 | 66 | 58 | 78 | 29.84 | W | 1 | 0.00 |
| 18 | 06/10 | 07:00 | 59 | 55 | 87 | 29.83 | N | 0 | 0.00 |
| 19 | 06/10 | 06:00 | 58 | 53 | 86 | 29.81 | N | 0 | 0.00 |
| 20 | 06/10 | 05:00 | 59 | 54 | 86 | 29.79 | N | 0 | 0.00 |
| 21 | 06/10 | 04:00 | 60 | 55 | 85 | 29.78 | N | 0 | 0.00 |
| 22 | 06/10 | 03:00 | 61 | 56 | 84 | 29.77 | W | 0 | 0.00 |
| 23 | 06/10 | 02:00 | 62 | 55 | 80 | 29.76 | WSW | 0 | 0.00 |
| 24 | 06/10 | 01:00 | 64 | 55 | 75 | 29.76 | WSW | 0 | 0.00 |